sensor_id;sensor_type;location;lat;lon;timestamp;P1;durP1;ratioP1;P2;durP2;ratioP2
52136;SDS011;69622;49.570;10.986;2023-05-10T00:01:40;8.85;;;6.43;;
52136;SDS011;69622;49.570;10.986;2023-05-10T00:04:41;7.68;;;5.85;;
52136;SDS011;69622;49.570;10.986;2023-05-10T00:07:43;8.80;;;5.97;;
52136;SDS011;69622;49.570;10.986;2023-05-10T00:10:46;7.00;;;5.88;;
52136;SDS011;69622;49.570;10.986;2023-05-10T00:13:47;10.77;;;7.13;;
52136;SDS011;69622;49.570;10.986;2023-05-10T00:16:48;7.63;;;6.32;;
52136;SDS011;69622;49.570;10.986;2023-05-10T00:19:50;7.40;;;5.80;;
52136;SDS011;69622;49.570;10.986;2023-05-10T00:22:51;7.78;;;6.28;;
52136;SDS011;69622;49.570;10.986;2023-05-10T00:25:53;8.18;;;6.22;;
52136;SDS011;69622;49.570;10.986;2023-05-10T00:28:54;12.48;;;6.13;;
52136;SDS011;69622;49.570;10.986;2023-05-10T00:31:56;8.35;;;6.55;;
52136;SDS011;69622;49.570;10.986;2023-05-10T00:34:57;9.07;;;6.55;;
52136;SDS011;69622;49.570;10.986;2023-05-10T00:37:58;8.15;;;5.93;;
52136;SDS011;69622;49.570;10.986;2023-05-10T00:41:00;10.32;;;7.45;;
52136;SDS011;69622;49.570;10.986;2023-05-10T00:44:01;8.85;;;6.07;;
52136;SDS011;69622;49.570;10.986;2023-05-10T00:47:03;8.48;;;7.30;;
52136;SDS011;69622;49.570;10.986;2023-05-10T00:50:05;12.35;;;6.95;;
52136;SDS011;69622;49.570;10.986;2023-05-10T00:53:07;8.43;;;6.60;;
52136;SDS011;69622;49.570;10.986;2023-05-10T00:56:10;8.50;;;6.60;;
52136;SDS011;69622;49.570;10.986;2023-05-10T00:59:11;8.00;;;7.13;;
52136;SDS011;69622;49.570;10.986;2023-05-10T01:02:12;10.02;;;6.78;;
52136;SDS011;69622;49.570;10.986;2023-05-10T01:05:14;8.60;;;6.15;;
52136;SDS011;69622;49.570;10.986;2023-05-10T01:08:16;8.18;;;6.40;;
52136;SDS011;69622;49.570;10.986;2023-05-10T01:11:18;6.60;;;5.85;;
52136;SDS011;69622;49.570;10.986;2023-05-10T01:14:19;7.35;;;5.97;;
52136;SDS011;69622;49.570;10.986;2023-05-10T01:17:21;7.25;;;5.90;;
52136;SDS011;69622;49.570;10.986;2023-05-10T01:20:23;9.32;;;6.75;;
52136;SDS011;69622;49.570;10.986;2023-05-10T01:23:37;9.95;;;6.25;;
52136;SDS011;69622;49.570;10.986;2023-05-10T01:30:35;9.25;;;7.30;;
52136;SDS011;69622;49.570;10.986;2023-05-10T01:33:55;9.23;;;7.13;;
52136;SDS011;69622;49.570;10.986;2023-05-10T01:37:05;9.35;;;7.22;;
52136;SDS011;69622;49.570;10.986;2023-05-10T01:40:32;8.00;;;6.60;;
52136;SDS011;69622;49.570;10.986;2023-05-10T01:44:02;7.65;;;6.70;;
52136;SDS011;69622;49.570;10.986;2023-05-10T01:47:15;8.33;;;7.00;;
52136;SDS011;69622;49.570;10.986;2023-05-10T01:50:24;12.13;;;6.97;;
52136;SDS011;69622;49.570;10.986;2023-05-10T01:53:30;9.30;;;7.22;;
52136;SDS011;69622;49.570;10.986;2023-05-10T01:56:35;10.38;;;7.60;;
52136;SDS011;69622;49.570;10.986;2023-05-10T01:59:38;10.18;;;7.50;;
52136;SDS011;69622;49.570;10.986;2023-05-10T02:02:45;9.45;;;7.22;;
52136;SDS011;69622;49.570;10.986;2023-05-10T02:05:48;7.55;;;6.80;;
52136;SDS011;69622;49.570;10.986;2023-05-10T02:08:50;11.68;;;7.70;;
52136;SDS011;69622;49.570;10.986;2023-05-10T02:11:53;10.90;;;7.53;;
52136;SDS011;69622;49.570;10.986;2023-05-10T02:14:55;9.40;;;7.43;;
52136;SDS011;69622;49.570;10.986;2023-05-10T02:17:57;8.68;;;6.82;;
52136;SDS011;69622;49.570;10.986;2023-05-10T02:21:01;11.57;;;6.78;;
52136;SDS011;69622;49.570;10.986;2023-05-10T02:24:03;9.30;;;6.80;;
52136;SDS011;69622;49.570;10.986;2023-05-10T02:27:06;9.85;;;6.88;;
52136;SDS011;69622;49.570;10.986;2023-05-10T02:30:09;9.07;;;6.90;;
52136;SDS011;69622;49.570;10.986;2023-05-10T02:33:12;9.20;;;6.00;;
52136;SDS011;69622;49.570;10.986;2023-05-10T02:36:15;8.40;;;6.38;;
52136;SDS011;69622;49.570;10.986;2023-05-10T02:39:18;10.52;;;6.15;;
52136;SDS011;69622;49.570;10.986;2023-05-10T02:42:31;9.20;;;4.93;;
52136;SDS011;69622;49.570;10.986;2023-05-10T02:45:36;8.32;;;4.78;;
52136;SDS011;69622;49.570;10.986;2023-05-10T02:48:39;5.55;;;3.70;;
52136;SDS011;69622;49.570;10.986;2023-05-10T02:51:42;3.67;;;2.88;;
52136;SDS011;69622;49.570;10.986;2023-05-10T02:54:48;4.05;;;2.10;;
52136;SDS011;69622;49.570;10.986;2023-05-10T02:57:56;2.00;;;1.63;;
52136;SDS011;69622;49.570;10.986;2023-05-10T03:01:00;1.92;;;1.73;;
52136;SDS011;69622;49.570;10.986;2023-05-10T03:04:02;3.58;;;1.90;;
52136;SDS011;69622;49.570;10.986;2023-05-10T03:07:04;2.50;;;1.73;;
52136;SDS011;69622;49.570;10.986;2023-05-10T03:10:06;2.30;;;1.52;;
52136;SDS011;69622;49.570;10.986;2023-05-10T03:16:29;2.47;;;1.27;;
52136;SDS011;69622;49.570;10.986;2023-05-10T03:20:01;3.78;;;1.05;;
52136;SDS011;69622;49.570;10.986;2023-05-10T03:26:23;1.95;;;0.85;;
52136;SDS011;69622;49.570;10.986;2023-05-10T03:29:26;2.03;;;0.52;;
52136;SDS011;69622;49.570;10.986;2023-05-10T03:32:30;1.23;;;0.80;;
52136;SDS011;69622;49.570;10.986;2023-05-10T03:35:33;0.50;;;0.30;;
52136;SDS011;69622;49.570;10.986;2023-05-10T03:38:35;0.30;;;0.30;;
52136;SDS011;69622;49.570;10.986;2023-05-10T03:41:36;2.28;;;0.75;;
52136;SDS011;69622;49.570;10.986;2023-05-10T03:44:41;1.08;;;0.70;;
52136;SDS011;69622;49.570;10.986;2023-05-10T03:47:42;0.55;;;0.40;;
52136;SDS011;69622;49.570;10.986;2023-05-10T03:50:43;0.75;;;0.55;;
52136;SDS011;69622;49.570;10.986;2023-05-10T03:53:45;0.82;;;0.55;;
52136;SDS011;69622;49.570;10.986;2023-05-10T03:56:47;0.80;;;0.52;;
52136;SDS011;69622;49.570;10.986;2023-05-10T03:59:49;2.28;;;0.90;;
52136;SDS011;69622;49.570;10.986;2023-05-10T04:02:51;1.75;;;0.52;;
52136;SDS011;69622;49.570;10.986;2023-05-10T04:05:59;0.70;;;0.40;;
52136;SDS011;69622;49.570;10.986;2023-05-10T04:09:03;1.17;;;0.47;;
52136;SDS011;69622;49.570;10.986;2023-05-10T04:12:05;0.70;;;0.50;;
52136;SDS011;69622;49.570;10.986;2023-05-10T04:15:10;0.80;;;0.65;;
52136;SDS011;69622;49.570;10.986;2023-05-10T04:18:11;1.48;;;0.47;;
52136;SDS011;69622;49.570;10.986;2023-05-10T04:21:13;2.25;;;0.40;;
52136;SDS011;69622;49.570;10.986;2023-05-10T04:24:14;2.58;;;0.52;;
52136;SDS011;69622;49.570;10.986;2023-05-10T04:27:16;1.55;;;0.60;;
52136;SDS011;69622;49.570;10.986;2023-05-10T04:30:18;0.60;;;0.50;;
52136;SDS011;69622;49.570;10.986;2023-05-10T04:33:19;0.68;;;0.40;;
52136;SDS011;69622;49.570;10.986;2023-05-10T04:36:21;0.75;;;0.50;;
52136;SDS011;69622;49.570;10.986;2023-05-10T04:39:22;5.75;;;2.08;;
52136;SDS011;69622;49.570;10.986;2023-05-10T04:42:24;1.35;;;0.60;;
52136;SDS011;69622;49.570;10.986;2023-05-10T04:45:25;0.45;;;0.40;;
52136;SDS011;69622;49.570;10.986;2023-05-10T04:48:27;1.05;;;0.40;;
52136;SDS011;69622;49.570;10.986;2023-05-10T04:51:28;0.93;;;0.70;;
52136;SDS011;69622;49.570;10.986;2023-05-10T04:54:29;0.70;;;0.43;;
52136;SDS011;69622;49.570;10.986;2023-05-10T04:57:31;1.58;;;0.60;;
52136;SDS011;69622;49.570;10.986;2023-05-10T05:00:32;1.95;;;0.80;;
52136;SDS011;69622;49.570;10.986;2023-05-10T05:03:34;0.80;;;0.55;;
52136;SDS011;69622;49.570;10.986;2023-05-10T05:06:36;2.15;;;0.70;;
52136;SDS011;69622;49.570;10.986;2023-05-10T05:09:37;1.10;;;0.60;;
52136;SDS011;69622;49.570;10.986;2023-05-10T05:12:38;1.13;;;0.93;;
52136;SDS011;69622;49.570;10.986;2023-05-10T05:15:40;0.75;;;0.63;;
52136;SDS011;69622;49.570;10.986;2023-05-10T05:18:41;2.85;;;0.73;;
52136;SDS011;69622;49.570;10.986;2023-05-10T05:21:43;1.00;;;0.70;;
52136;SDS011;69622;49.570;10.986;2023-05-10T05:24:44;0.80;;;0.70;;
52136;SDS011;69622;49.570;10.986;2023-05-10T05:27:46;2.97;;;0.75;;
52136;SDS011;69622;49.570;10.986;2023-05-10T05:30:48;1.52;;;0.80;;
52136;SDS011;69622;49.570;10.986;2023-05-10T05:33:49;3.33;;;0.98;;
52136;SDS011;69622;49.570;10.986;2023-05-10T05:36:50;2.80;;;0.73;;
52136;SDS011;69622;49.570;10.986;2023-05-10T05:39:52;5.53;;;1.00;;
52136;SDS011;69622;49.570;10.986;2023-05-10T05:42:55;2.08;;;0.90;;
52136;SDS011;69622;49.570;10.986;2023-05-10T05:45:56;3.35;;;0.65;;
52136;SDS011;69622;49.570;10.986;2023-05-10T05:48:59;1.40;;;0.88;;
52136;SDS011;69622;49.570;10.986;2023-05-10T05:52:02;2.50;;;1.10;;
52136;SDS011;69622;49.570;10.986;2023-05-10T05:55:05;3.50;;;1.00;;
52136;SDS011;69622;49.570;10.986;2023-05-10T05:58:06;4.50;;;1.23;;
52136;SDS011;69622;49.570;10.986;2023-05-10T06:01:07;1.63;;;0.93;;
52136;SDS011;69622;49.570;10.986;2023-05-10T06:04:09;1.70;;;1.30;;
52136;SDS011;69622;49.570;10.986;2023-05-10T06:07:11;2.72;;;0.95;;
52136;SDS011;69622;49.570;10.986;2023-05-10T06:10:12;1.92;;;1.13;;
52136;SDS011;69622;49.570;10.986;2023-05-10T06:13:14;3.20;;;1.27;;
52136;SDS011;69622;49.570;10.986;2023-05-10T06:16:16;1.27;;;1.17;;
52136;SDS011;69622;49.570;10.986;2023-05-10T06:19:18;1.30;;;1.13;;
52136;SDS011;69622;49.570;10.986;2023-05-10T06:22:20;1.55;;;1.20;;
52136;SDS011;69622;49.570;10.986;2023-05-10T06:25:23;1.83;;;1.10;;
52136;SDS011;69622;49.570;10.986;2023-05-10T06:28:25;1.50;;;1.00;;
52136;SDS011;69622;49.570;10.986;2023-05-10T06:31:26;1.42;;;0.88;;
52136;SDS011;69622;49.570;10.986;2023-05-10T06:34:28;5.75;;;1.40;;
52136;SDS011;69622;49.570;10.986;2023-05-10T06:37:29;1.20;;;1.10;;
52136;SDS011;69622;49.570;10.986;2023-05-10T06:40:30;2.85;;;1.38;;
52136;SDS011;69622;49.570;10.986;2023-05-10T06:43:32;1.42;;;1.33;;
52136;SDS011;69622;49.570;10.986;2023-05-10T06:46:33;2.30;;;1.88;;
52136;SDS011;69622;49.570;10.986;2023-05-10T06:49:35;1.70;;;1.48;;
52136;SDS011;69622;49.570;10.986;2023-05-10T06:52:36;1.40;;;1.17;;
52136;SDS011;69622;49.570;10.986;2023-05-10T06:55:38;1.17;;;1.08;;
52136;SDS011;69622;49.570;10.986;2023-05-10T06:58:40;1.30;;;0.90;;
52136;SDS011;69622;49.570;10.986;2023-05-10T07:01:42;4.05;;;1.00;;
52136;SDS011;69622;49.570;10.986;2023-05-10T07:04:43;2.35;;;0.93;;
52136;SDS011;69622;49.570;10.986;2023-05-10T07:07:45;1.63;;;0.80;;
52136;SDS011;69622;49.570;10.986;2023-05-10T07:10:47;1.70;;;0.98;;
52136;SDS011;69622;49.570;10.986;2023-05-10T07:13:48;1.88;;;1.27;;
52136;SDS011;69622;49.570;10.986;2023-05-10T07:16:49;0.90;;;0.77;;
52136;SDS011;69622;49.570;10.986;2023-05-10T07:19:51;2.55;;;1.00;;
52136;SDS011;69622;49.570;10.986;2023-05-10T07:22:52;1.15;;;1.05;;
52136;SDS011;69622;49.570;10.986;2023-05-10T07:25:54;1.90;;;1.08;;
52136;SDS011;69622;49.570;10.986;2023-05-10T07:28:55;1.35;;;0.88;;
52136;SDS011;69622;49.570;10.986;2023-05-10T07:31:57;2.50;;;1.10;;
52136;SDS011;69622;49.570;10.986;2023-05-10T07:34:59;1.70;;;0.88;;
52136;SDS011;69622;49.570;10.986;2023-05-10T07:38:00;2.60;;;1.40;;
52136;SDS011;69622;49.570;10.986;2023-05-10T07:41:02;1.00;;;0.80;;
52136;SDS011;69622;49.570;10.986;2023-05-10T07:44:04;2.35;;;0.80;;
52136;SDS011;69622;49.570;10.986;2023-05-10T07:47:06;3.63;;;1.00;;
52136;SDS011;69622;49.570;10.986;2023-05-10T07:50:07;1.83;;;1.05;;
52136;SDS011;69622;49.570;10.986;2023-05-10T07:53:09;1.35;;;1.17;;
52136;SDS011;69622;49.570;10.986;2023-05-10T07:59:21;3.20;;;1.27;;
52136;SDS011;69622;49.570;10.986;2023-05-10T08:02:22;1.27;;;1.00;;
52136;SDS011;69622;49.570;10.986;2023-05-10T08:05:24;3.30;;;1.10;;
52136;SDS011;69622;49.570;10.986;2023-05-10T08:08:25;1.45;;;1.23;;
52136;SDS011;69622;49.570;10.986;2023-05-10T08:11:27;2.22;;;1.58;;
52136;SDS011;69622;49.570;10.986;2023-05-10T08:14:29;5.50;;;1.42;;
52136;SDS011;69622;49.570;10.986;2023-05-10T08:17:30;4.22;;;1.42;;
52136;SDS011;69622;49.570;10.986;2023-05-10T08:20:32;2.05;;;1.33;;
52136;SDS011;69622;49.570;10.986;2023-05-10T08:23:33;3.63;;;1.80;;
52136;SDS011;69622;49.570;10.986;2023-05-10T08:26:35;1.23;;;1.13;;
52136;SDS011;69622;49.570;10.986;2023-05-10T08:29:37;1.45;;;1.33;;
52136;SDS011;69622;49.570;10.986;2023-05-10T08:32:49;1.92;;;1.20;;
52136;SDS011;69622;49.570;10.986;2023-05-10T08:35:50;1.80;;;1.40;;
52136;SDS011;69622;49.570;10.986;2023-05-10T08:38:52;2.80;;;1.38;;
52136;SDS011;69622;49.570;10.986;2023-05-10T08:41:55;1.65;;;1.55;;
52136;SDS011;69622;49.570;10.986;2023-05-10T08:45:02;1.80;;;1.50;;
52136;SDS011;69622;49.570;10.986;2023-05-10T08:48:06;2.40;;;1.35;;
52136;SDS011;69622;49.570;10.986;2023-05-10T08:51:09;1.77;;;1.50;;
52136;SDS011;69622;49.570;10.986;2023-05-10T08:54:18;2.15;;;1.30;;
52136;SDS011;69622;49.570;10.986;2023-05-10T08:57:20;2.38;;;1.20;;
52136;SDS011;69622;49.570;10.986;2023-05-10T09:00:21;1.38;;;1.23;;
52136;SDS011;69622;49.570;10.986;2023-05-10T09:03:24;2.00;;;1.80;;
52136;SDS011;69622;49.570;10.986;2023-05-10T09:06:26;3.50;;;1.60;;
52136;SDS011;69622;49.570;10.986;2023-05-10T09:09:27;2.20;;;1.85;;
52136;SDS011;69622;49.570;10.986;2023-05-10T09:12:29;3.17;;;1.90;;
52136;SDS011;69622;49.570;10.986;2023-05-10T09:15:31;2.90;;;2.13;;
52136;SDS011;69622;49.570;10.986;2023-05-10T09:18:32;1.95;;;1.73;;
52136;SDS011;69622;49.570;10.986;2023-05-10T09:21:35;2.30;;;2.03;;
52136;SDS011;69622;49.570;10.986;2023-05-10T09:24:40;3.00;;;2.10;;
52136;SDS011;69622;49.570;10.986;2023-05-10T09:27:46;1.83;;;1.10;;
52136;SDS011;69622;49.570;10.986;2023-05-10T09:30:53;1.80;;;1.20;;
52136;SDS011;69622;49.570;10.986;2023-05-10T09:33:54;3.00;;;1.42;;
52136;SDS011;69622;49.570;10.986;2023-05-10T09:36:59;1.73;;;1.40;;
52136;SDS011;69622;49.570;10.986;2023-05-10T09:40:06;2.80;;;1.48;;
52136;SDS011;69622;49.570;10.986;2023-05-10T09:43:09;3.70;;;1.20;;
52136;SDS011;69622;49.570;10.986;2023-05-10T09:46:12;1.60;;;1.38;;
52136;SDS011;69622;49.570;10.986;2023-05-10T09:49:14;2.13;;;1.40;;
52136;SDS011;69622;49.570;10.986;2023-05-10T09:52:15;1.20;;;1.08;;
52136;SDS011;69622;49.570;10.986;2023-05-10T09:55:18;4.40;;;1.27;;
52136;SDS011;69622;49.570;10.986;2023-05-10T09:58:21;3.47;;;1.17;;
52136;SDS011;69622;49.570;10.986;2023-05-10T10:01:25;1.17;;;1.05;;
52136;SDS011;69622;49.570;10.986;2023-05-10T10:07:29;2.33;;;1.05;;
52136;SDS011;69622;49.570;10.986;2023-05-10T10:10:31;2.90;;;1.25;;
52136;SDS011;69622;49.570;10.986;2023-05-10T10:13:34;4.50;;;1.30;;
52136;SDS011;69622;49.570;10.986;2023-05-10T10:16:35;0.98;;;0.75;;
52136;SDS011;69622;49.570;10.986;2023-05-10T10:19:46;1.20;;;1.10;;
52136;SDS011;69622;49.570;10.986;2023-05-10T10:22:48;2.15;;;1.10;;
52136;SDS011;69622;49.570;10.986;2023-05-10T10:25:49;1.67;;;1.00;;
52136;SDS011;69622;49.570;10.986;2023-05-10T10:32:25;5.38;;;1.20;;
52136;SDS011;69622;49.570;10.986;2023-05-10T10:35:34;3.55;;;1.30;;
52136;SDS011;69622;49.570;10.986;2023-05-10T10:41:51;3.00;;;1.00;;
52136;SDS011;69622;49.570;10.986;2023-05-10T10:45:11;4.90;;;1.70;;
52136;SDS011;69622;49.570;10.986;2023-05-10T10:48:20;5.70;;;1.13;;
52136;SDS011;69622;49.570;10.986;2023-05-10T10:51:22;1.80;;;1.27;;
52136;SDS011;69622;49.570;10.986;2023-05-10T10:54:27;1.77;;;1.30;;
52136;SDS011;69622;49.570;10.986;2023-05-10T10:57:32;2.17;;;1.00;;
52136;SDS011;69622;49.570;10.986;2023-05-10T11:00:44;1.80;;;1.02;;
52136;SDS011;69622;49.570;10.986;2023-05-10T11:07:15;3.38;;;1.25;;
52136;SDS011;69622;49.570;10.986;2023-05-10T11:10:21;2.08;;;1.58;;
52136;SDS011;69622;49.570;10.986;2023-05-10T11:13:27;2.05;;;1.85;;
52136;SDS011;69622;49.570;10.986;2023-05-10T11:16:41;3.53;;;1.60;;
52136;SDS011;69622;49.570;10.986;2023-05-10T11:20:01;3.85;;;1.73;;
52136;SDS011;69622;49.570;10.986;2023-05-10T11:23:13;3.33;;;1.70;;
52136;SDS011;69622;49.570;10.986;2023-05-10T11:26:19;4.03;;;1.90;;
52136;SDS011;69622;49.570;10.986;2023-05-10T11:32:27;3.58;;;2.20;;
52136;SDS011;69622;49.570;10.986;2023-05-10T11:35:28;4.35;;;1.70;;
52136;SDS011;69622;49.570;10.986;2023-05-10T11:38:30;2.83;;;1.50;;
52136;SDS011;69622;49.570;10.986;2023-05-10T11:41:33;2.03;;;1.00;;
52136;SDS011;69622;49.570;10.986;2023-05-10T11:44:35;1.88;;;1.02;;
52136;SDS011;69622;49.570;10.986;2023-05-10T11:47:36;2.50;;;0.85;;
52136;SDS011;69622;49.570;10.986;2023-05-10T11:50:38;1.77;;;1.05;;
52136;SDS011;69622;49.570;10.986;2023-05-10T11:53:39;1.10;;;1.00;;
52136;SDS011;69622;49.570;10.986;2023-05-10T11:56:41;1.95;;;1.23;;
52136;SDS011;69622;49.570;10.986;2023-05-10T11:59:42;4.30;;;1.00;;
52136;SDS011;69622;49.570;10.986;2023-05-10T12:02:44;2.15;;;0.90;;
52136;SDS011;69622;49.570;10.986;2023-05-10T12:05:45;3.47;;;1.38;;
52136;SDS011;69622;49.570;10.986;2023-05-10T12:08:47;1.73;;;1.05;;
52136;SDS011;69622;49.570;10.986;2023-05-10T12:11:57;1.20;;;0.98;;
52136;SDS011;69622;49.570;10.986;2023-05-10T12:14:59;1.50;;;1.30;;
52136;SDS011;69622;49.570;10.986;2023-05-10T12:18:00;3.38;;;1.20;;
52136;SDS011;69622;49.570;10.986;2023-05-10T12:21:02;1.52;;;1.20;;
52136;SDS011;69622;49.570;10.986;2023-05-10T12:24:04;1.67;;;1.08;;
52136;SDS011;69622;49.570;10.986;2023-05-10T12:27:07;3.10;;;1.15;;
52136;SDS011;69622;49.570;10.986;2023-05-10T12:30:09;3.00;;;1.63;;
52136;SDS011;69622;49.570;10.986;2023-05-10T12:33:12;2.80;;;1.42;;
52136;SDS011;69622;49.570;10.986;2023-05-10T12:36:16;2.55;;;1.40;;
52136;SDS011;69622;49.570;10.986;2023-05-10T12:39:18;2.35;;;1.10;;
52136;SDS011;69622;49.570;10.986;2023-05-10T12:42:19;2.28;;;1.42;;
52136;SDS011;69622;49.570;10.986;2023-05-10T12:45:21;1.83;;;1.58;;
52136;SDS011;69622;49.570;10.986;2023-05-10T12:48:23;4.03;;;1.70;;
52136;SDS011;69622;49.570;10.986;2023-05-10T12:51:24;1.55;;;1.45;;
52136;SDS011;69622;49.570;10.986;2023-05-10T12:54:26;1.83;;;1.33;;
52136;SDS011;69622;49.570;10.986;2023-05-10T12:57:27;1.60;;;1.48;;
52136;SDS011;69622;49.570;10.986;2023-05-10T13:00:29;2.53;;;1.60;;
52136;SDS011;69622;49.570;10.986;2023-05-10T13:03:30;2.88;;;1.42;;
52136;SDS011;69622;49.570;10.986;2023-05-10T13:06:32;1.90;;;1.23;;
52136;SDS011;69622;49.570;10.986;2023-05-10T13:09:33;2.60;;;1.20;;
52136;SDS011;69622;49.570;10.986;2023-05-10T13:12:35;3.28;;;1.70;;
52136;SDS011;69622;49.570;10.986;2023-05-10T13:15:37;1.30;;;0.88;;
52136;SDS011;69622;49.570;10.986;2023-05-10T13:18:38;1.58;;;1.00;;
52136;SDS011;69622;49.570;10.986;2023-05-10T13:21:39;1.88;;;1.40;;
52136;SDS011;69622;49.570;10.986;2023-05-10T13:24:45;2.00;;;1.13;;
52136;SDS011;69622;49.570;10.986;2023-05-10T13:27:46;2.95;;;1.15;;
52136;SDS011;69622;49.570;10.986;2023-05-10T13:30:48;3.08;;;1.27;;
52136;SDS011;69622;49.570;10.986;2023-05-10T13:33:49;1.45;;;1.10;;
52136;SDS011;69622;49.570;10.986;2023-05-10T13:36:50;1.33;;;1.17;;
52136;SDS011;69622;49.570;10.986;2023-05-10T13:39:52;2.22;;;1.10;;
52136;SDS011;69622;49.570;10.986;2023-05-10T13:42:53;1.90;;;1.15;;
52136;SDS011;69622;49.570;10.986;2023-05-10T13:45:55;5.57;;;1.20;;
52136;SDS011;69622;49.570;10.986;2023-05-10T13:48:56;3.08;;;1.25;;
52136;SDS011;69622;49.570;10.986;2023-05-10T13:51:58;1.55;;;1.20;;
52136;SDS011;69622;49.570;10.986;2023-05-10T13:54:59;3.53;;;1.40;;
52136;SDS011;69622;49.570;10.986;2023-05-10T13:58:01;6.13;;;1.48;;
52136;SDS011;69622;49.570;10.986;2023-05-10T14:01:03;2.45;;;1.38;;
52136;SDS011;69622;49.570;10.986;2023-05-10T14:04:05;2.40;;;1.50;;
52136;SDS011;69622;49.570;10.986;2023-05-10T14:07:08;5.30;;;1.60;;
52136;SDS011;69622;49.570;10.986;2023-05-10T14:10:09;2.33;;;1.67;;
52136;SDS011;69622;49.570;10.986;2023-05-10T14:13:11;2.75;;;1.60;;
52136;SDS011;69622;49.570;10.986;2023-05-10T14:16:13;3.88;;;1.38;;
52136;SDS011;69622;49.570;10.986;2023-05-10T14:19:15;3.17;;;1.60;;
52136;SDS011;69622;49.570;10.986;2023-05-10T14:22:17;3.25;;;1.30;;
52136;SDS011;69622;49.570;10.986;2023-05-10T14:25:19;2.65;;;1.38;;
52136;SDS011;69622;49.570;10.986;2023-05-10T14:28:20;1.38;;;1.27;;
52136;SDS011;69622;49.570;10.986;2023-05-10T14:31:23;1.45;;;1.15;;
52136;SDS011;69622;49.570;10.986;2023-05-10T14:34:26;2.00;;;1.10;;
52136;SDS011;69622;49.570;10.986;2023-05-10T14:37:28;1.63;;;1.15;;
52136;SDS011;69622;49.570;10.986;2023-05-10T14:40:29;1.58;;;0.90;;
52136;SDS011;69622;49.570;10.986;2023-05-10T14:43:31;3.13;;;1.27;;
52136;SDS011;69622;49.570;10.986;2023-05-10T14:46:32;1.70;;;1.10;;
52136;SDS011;69622;49.570;10.986;2023-05-10T14:49:36;4.10;;;1.40;;
52136;SDS011;69622;49.570;10.986;2023-05-10T14:52:38;1.20;;;1.10;;
52136;SDS011;69622;49.570;10.986;2023-05-10T14:55:39;1.23;;;0.80;;
52136;SDS011;69622;49.570;10.986;2023-05-10T14:58:41;2.40;;;0.90;;
52136;SDS011;69622;49.570;10.986;2023-05-10T15:01:42;1.40;;;1.13;;
52136;SDS011;69622;49.570;10.986;2023-05-10T15:04:44;1.05;;;0.60;;
52136;SDS011;69622;49.570;10.986;2023-05-10T15:07:46;3.88;;;1.13;;
52136;SDS011;69622;49.570;10.986;2023-05-10T15:10:48;1.20;;;1.00;;
52136;SDS011;69622;49.570;10.986;2023-05-10T15:13:49;2.75;;;1.10;;
52136;SDS011;69622;49.570;10.986;2023-05-10T15:16:50;4.35;;;1.52;;
52136;SDS011;69622;49.570;10.986;2023-05-10T15:19:52;8.70;;;3.13;;
52136;SDS011;69622;49.570;10.986;2023-05-10T15:22:53;3.15;;;1.77;;
52136;SDS011;69622;49.570;10.986;2023-05-10T15:25:55;3.17;;;1.80;;
52136;SDS011;69622;49.570;10.986;2023-05-10T15:28:57;3.50;;;1.65;;
52136;SDS011;69622;49.570;10.986;2023-05-10T15:31:58;2.47;;;1.42;;
52136;SDS011;69622;49.570;10.986;2023-05-10T15:35:00;5.85;;;1.30;;
52136;SDS011;69622;49.570;10.986;2023-05-10T15:38:02;3.58;;;1.42;;
52136;SDS011;69622;49.570;10.986;2023-05-10T15:41:03;2.75;;;1.55;;
52136;SDS011;69622;49.570;10.986;2023-05-10T15:44:05;4.45;;;1.23;;
52136;SDS011;69622;49.570;10.986;2023-05-10T15:47:08;2.53;;;1.30;;
52136;SDS011;69622;49.570;10.986;2023-05-10T15:50:10;3.35;;;1.15;;
52136;SDS011;69622;49.570;10.986;2023-05-10T15:53:11;1.60;;;1.25;;
52136;SDS011;69622;49.570;10.986;2023-05-10T15:56:12;3.15;;;1.15;;
52136;SDS011;69622;49.570;10.986;2023-05-10T15:59:14;1.35;;;1.20;;
52136;SDS011;69622;49.570;10.986;2023-05-10T16:02:15;1.95;;;1.20;;
52136;SDS011;69622;49.570;10.986;2023-05-10T16:05:19;1.35;;;1.20;;
52136;SDS011;69622;49.570;10.986;2023-05-10T16:08:20;2.67;;;1.17;;
52136;SDS011;69622;49.570;10.986;2023-05-10T16:11:22;1.80;;;1.60;;
52136;SDS011;69622;49.570;10.986;2023-05-10T16:14:23;2.00;;;1.60;;
52136;SDS011;69622;49.570;10.986;2023-05-10T16:17:25;3.42;;;2.00;;
52136;SDS011;69622;49.570;10.986;2023-05-10T16:20:27;1.73;;;1.63;;
52136;SDS011;69622;49.570;10.986;2023-05-10T16:23:30;1.75;;;1.55;;
52136;SDS011;69622;49.570;10.986;2023-05-10T16:26:32;2.22;;;1.88;;
52136;SDS011;69622;49.570;10.986;2023-05-10T16:29:36;2.00;;;1.60;;
52136;SDS011;69622;49.570;10.986;2023-05-10T16:32:38;2.00;;;1.90;;
52136;SDS011;69622;49.570;10.986;2023-05-10T16:35:40;3.63;;;2.00;;
52136;SDS011;69622;49.570;10.986;2023-05-10T16:38:42;2.28;;;2.08;;
52136;SDS011;69622;49.570;10.986;2023-05-10T16:41:43;2.20;;;2.00;;
52136;SDS011;69622;49.570;10.986;2023-05-10T16:44:46;3.55;;;1.98;;
52136;SDS011;69622;49.570;10.986;2023-05-10T16:47:48;2.38;;;2.15;;
52136;SDS011;69622;49.570;10.986;2023-05-10T16:50:49;3.53;;;2.25;;
52136;SDS011;69622;49.570;10.986;2023-05-10T16:53:52;2.38;;;2.17;;
52136;SDS011;69622;49.570;10.986;2023-05-10T16:56:53;2.85;;;2.22;;
52136;SDS011;69622;49.570;10.986;2023-05-10T16:59:55;4.05;;;2.10;;
52136;SDS011;69622;49.570;10.986;2023-05-10T17:02:56;3.88;;;2.30;;
52136;SDS011;69622;49.570;10.986;2023-05-10T17:05:58;2.80;;;2.20;;
52136;SDS011;69622;49.570;10.986;2023-05-10T17:08:59;2.60;;;2.40;;
52136;SDS011;69622;49.570;10.986;2023-05-10T17:12:01;3.13;;;2.63;;
52136;SDS011;69622;49.570;10.986;2023-05-10T17:15:04;2.85;;;2.60;;
52136;SDS011;69622;49.570;10.986;2023-05-10T17:18:06;3.35;;;2.92;;
52136;SDS011;69622;49.570;10.986;2023-05-10T17:21:08;4.00;;;2.80;;
52136;SDS011;69622;49.570;10.986;2023-05-10T17:24:09;3.20;;;2.28;;
52136;SDS011;69622;49.570;10.986;2023-05-10T17:27:11;10.57;;;2.60;;
52136;SDS011;69622;49.570;10.986;2023-05-10T17:30:14;3.70;;;2.70;;
52136;SDS011;69622;49.570;10.986;2023-05-10T17:33:15;3.80;;;2.80;;
52136;SDS011;69622;49.570;10.986;2023-05-10T17:36:17;4.90;;;2.30;;
52136;SDS011;69622;49.570;10.986;2023-05-10T17:39:18;2.53;;;2.33;;
52136;SDS011;69622;49.570;10.986;2023-05-10T17:42:19;3.03;;;2.35;;
52136;SDS011;69622;49.570;10.986;2023-05-10T17:45:21;5.13;;;2.92;;
52136;SDS011;69622;49.570;10.986;2023-05-10T17:48:22;4.35;;;2.35;;
52136;SDS011;69622;49.570;10.986;2023-05-10T17:51:24;4.55;;;2.10;;
52136;SDS011;69622;49.570;10.986;2023-05-10T17:54:26;2.75;;;2.40;;
52136;SDS011;69622;49.570;10.986;2023-05-10T17:57:28;3.97;;;2.13;;
52136;SDS011;69622;49.570;10.986;2023-05-10T18:00:29;2.80;;;2.38;;
52136;SDS011;69622;49.570;10.986;2023-05-10T18:03:31;4.70;;;2.22;;
52136;SDS011;69622;49.570;10.986;2023-05-10T18:06:34;3.75;;;2.10;;
52136;SDS011;69622;49.570;10.986;2023-05-10T18:09:39;4.00;;;2.47;;
52136;SDS011;69622;49.570;10.986;2023-05-10T18:12:40;3.95;;;2.25;;
52136;SDS011;69622;49.570;10.986;2023-05-10T18:15:42;3.80;;;2.70;;
52136;SDS011;69622;49.570;10.986;2023-05-10T18:18:43;5.82;;;2.50;;
52136;SDS011;69622;49.570;10.986;2023-05-10T18:21:45;3.70;;;2.72;;
52136;SDS011;69622;49.570;10.986;2023-05-10T18:24:46;4.07;;;2.92;;
52136;SDS011;69622;49.570;10.986;2023-05-10T18:27:48;2.85;;;2.25;;
52136;SDS011;69622;49.570;10.986;2023-05-10T18:30:49;3.33;;;2.72;;
52136;SDS011;69622;49.570;10.986;2023-05-10T18:33:51;3.45;;;3.15;;